createdAt,value
2018-10-03T00:01:22.238Z,80.70
2018-10-03T00:03:50.295Z,80.80
2018-10-03T00:06:18.330Z,80.90
2018-10-03T00:08:46.403Z,80.20
2018-10-03T00:11:14.428Z,79.80
2018-10-03T00:13:42.447Z,79.80
2018-10-03T00:16:10.588Z,79.50
2018-10-03T00:18:38.651Z,79.20
2018-10-03T00:21:06.685Z,79.30
2018-10-03T00:23:34.921Z,78.80
2018-10-03T00:26:03.081Z,79.00
2018-10-03T00:28:31.122Z,78.90
2018-10-03T00:30:59.339Z,78.70
2018-10-03T00:33:27.397Z,78.90
2018-10-03T00:35:55.480Z,78.40
2018-10-03T00:38:23.541Z,78.20
2018-10-03T00:40:51.658Z,77.60
2018-10-03T00:43:20.892Z,77.40
2018-10-03T00:45:49.041Z,77.60
2018-10-03T00:48:17.066Z,77.80
2018-10-03T00:50:45.084Z,78.10
2018-10-03T00:53:13.150Z,78.70
2018-10-03T00:55:41.180Z,78.00
2018-10-03T00:58:09.191Z,78.40
2018-10-03T01:00:37.604Z,78.30
2018-10-03T01:03:05.667Z,78.50
2018-10-03T01:05:33.726Z,78.40
2018-10-03T01:08:01.935Z,78.10
2018-10-03T01:10:30.107Z,78.10
2018-10-03T01:12:58.319Z,78.20
2018-10-03T01:15:26.368Z,77.70
2018-10-03T01:17:54.445Z,77.20
2018-10-03T01:20:22.507Z,77.50
2018-10-03T01:22:50.558Z,77.50
2018-10-03T01:25:18.592Z,76.80
2018-10-03T01:27:46.795Z,77.10
2018-10-03T01:30:14.826Z,76.90
2018-10-03T01:32:42.870Z,76.60
2018-10-03T01:35:10.870Z,76.60
2018-10-03T01:37:39.074Z,77.70
2018-10-03T01:40:07.135Z,78.50
2018-10-03T01:42:35.190Z,78.90
2018-10-03T01:45:03.899Z,79.20
2018-10-03T01:47:31.937Z,78.70
2018-10-03T01:49:59.948Z,78.50
2018-10-03T01:52:28.133Z,78.90
2018-10-03T01:54:56.175Z,78.60
2018-10-03T01:57:24.203Z,78.80
2018-10-03T01:59:52.320Z,78.90
2018-10-03T02:02:20.397Z,79.00
2018-10-03T02:04:48.475Z,79.40
2018-10-03T02:07:16.511Z,80.20
2018-10-03T02:09:44.615Z,80.00
2018-10-03T02:12:12.713Z,80.00
2018-10-03T02:14:41.010Z,80.10
2018-10-03T02:17:09.036Z,79.80
2018-10-03T02:19:37.097Z,79.50
2018-10-03T02:22:05.187Z,79.40
2018-10-03T02:24:33.215Z,78.90
2018-10-03T02:27:01.305Z,79.00
2018-10-03T02:29:29.594Z,79.20
2018-10-03T02:31:57.662Z,78.70
2018-10-03T02:34:25.867Z,78.40
2018-10-03T02:36:53.957Z,78.30
2018-10-03T02:39:22.116Z,78.30
2018-10-03T02:41:50.229Z,77.70
2018-10-03T02:44:18.514Z,77.90
2018-10-03T02:46:47.044Z,77.50
2018-10-03T02:49:15.061Z,77.20
2018-10-03T02:51:43.448Z,76.60
2018-10-03T02:54:11.487Z,76.80
2018-10-03T02:56:39.501Z,75.80
2018-10-03T02:59:07.681Z,75.70
2018-10-03T03:01:35.746Z,75.40
2018-10-03T03:04:03.730Z,75.20
2018-10-03T03:06:31.915Z,75.70
2018-10-03T03:09:00.036Z,76.30
2018-10-03T03:11:27.999Z,76.70
2018-10-03T03:13:56.302Z,76.80
2018-10-03T03:16:24.582Z,77.30
2018-10-03T03:18:52.618Z,77.20
2018-10-03T03:21:20.707Z,77.50
2018-10-03T03:23:48.772Z,77.00
2018-10-03T03:26:16.812Z,77.30
2018-10-03T03:28:44.874Z,77.40
2018-10-03T03:31:12.906Z,77.40
2018-10-03T03:33:40.919Z,78.20
2018-10-03T03:36:08.984Z,77.30
2018-10-03T03:38:37.002Z,77.20
2018-10-03T03:41:05.092Z,77.90
2018-10-03T03:43:33.127Z,77.80
2018-10-03T03:46:01.235Z,77.70
2018-10-03T03:48:29.678Z,77.20
2018-10-03T03:50:57.995Z,77.10
2018-10-03T03:53:26.029Z,76.50
2018-10-03T03:55:54.043Z,76.40
2018-10-03T03:58:22.613Z,76.80
2018-10-03T04:00:50.603Z,77.10
2018-10-03T04:03:18.619Z,76.80
2018-10-03T04:05:46.825Z,76.80
2018-10-03T04:08:14.870Z,76.70
2018-10-03T04:10:43.059Z,76.50
2018-10-03T04:13:11.162Z,76.10
2018-10-03T04:15:39.179Z,75.90
2018-10-03T04:18:07.244Z,75.90
2018-10-03T04:20:35.306Z,75.40
2018-10-03T04:23:03.325Z,75.50
2018-10-03T04:25:31.350Z,75.10
2018-10-03T04:27:59.529Z,75.20
2018-10-03T04:30:27.582Z,75.70
2018-10-03T04:32:55.586Z,75.30
2018-10-03T04:35:23.680Z,74.70
2018-10-03T04:37:51.770Z,74.00
2018-10-03T04:40:19.861Z,73.90
2018-10-03T04:42:48.103Z,73.30
2018-10-03T04:45:16.130Z,73.40
2018-10-03T04:47:44.230Z,73.20
2018-10-03T04:50:12.566Z,73.10
2018-10-03T04:52:40.574Z,72.90
2018-10-03T04:55:08.698Z,73.00
2018-10-03T04:57:36.738Z,73.40
2018-10-03T05:00:04.750Z,73.50
2018-10-03T05:02:32.774Z,74.30
2018-10-03T05:05:00.827Z,73.80
2018-10-03T05:07:28.911Z,74.10
2018-10-03T05:09:56.924Z,74.10
2018-10-03T05:12:25.121Z,73.70
2018-10-03T05:14:53.282Z,74.10
2018-10-03T05:17:21.443Z,74.00
2018-10-03T05:19:49.618Z,73.50
2018-10-03T05:22:17.681Z,73.70
2018-10-03T05:24:46.407Z,73.50
2018-10-03T05:27:14.519Z,73.10
2018-10-03T05:29:42.535Z,73.40
2018-10-03T05:32:10.557Z,73.20
2018-10-03T05:34:39.021Z,72.80
2018-10-03T05:37:07.299Z,73.10
2018-10-03T05:39:35.356Z,72.60
2018-10-03T05:42:03.342Z,72.40
2018-10-03T05:44:31.459Z,73.00
2018-10-03T05:46:59.593Z,72.30
2018-10-03T05:49:27.860Z,73.00
2018-10-03T05:51:56.134Z,72.90
2018-10-03T05:54:24.204Z,73.10
2018-10-03T05:56:52.558Z,73.60
2018-10-03T05:59:20.596Z,74.50
2018-10-03T06:01:48.618Z,74.20
2018-10-03T06:04:16.927Z,73.20
2018-10-03T06:06:44.988Z,73.20
2018-10-03T06:09:13.542Z,72.90
2018-10-03T06:11:42.574Z,72.80
2018-10-03T06:14:11.008Z,72.20
2018-10-03T06:16:39.074Z,72.50
2018-10-03T06:19:07.158Z,71.90
2018-10-03T06:21:35.542Z,72.00
2018-10-03T06:24:04.022Z,72.00
2018-10-03T06:26:32.206Z,71.50
2018-10-03T06:29:00.262Z,71.50
2018-10-03T06:31:28.335Z,71.20
2018-10-03T06:33:57.559Z,70.40
2018-10-03T06:36:25.607Z,69.40
2018-10-03T06:38:53.647Z,66.00
2018-10-03T06:41:21.677Z,64.80
2018-10-03T06:43:49.773Z,64.80
2018-10-03T06:46:17.921Z,65.30
2018-10-03T06:48:46.013Z,66.20
2018-10-03T06:51:14.073Z,67.10
2018-10-03T06:53:42.456Z,68.00
2018-10-03T06:56:10.894Z,68.10
2018-10-03T06:58:38.975Z,68.30
2018-10-03T07:01:06.986Z,68.80
2018-10-03T07:03:35.000Z,69.50
2018-10-03T07:06:03.070Z,69.80
2018-10-03T07:08:31.067Z,70.00
2018-10-03T07:10:59.091Z,69.90
2018-10-03T07:13:27.099Z,69.30
2018-10-03T07:15:55.121Z,69.60
2018-10-03T07:18:23.333Z,69.00
2018-10-03T07:20:51.347Z,69.30
2018-10-03T07:23:19.343Z,68.20
2018-10-03T07:25:47.466Z,67.80
2018-10-03T07:28:17.218Z,67.50
2018-10-03T07:30:45.282Z,67.80
2018-10-03T07:33:13.296Z,67.20
2018-10-03T07:35:41.327Z,66.90
2018-10-03T07:38:09.852Z,65.40
2018-10-03T07:40:38.143Z,62.50
2018-10-03T07:43:06.878Z,62.50
2018-10-03T07:45:35.096Z,62.80
2018-10-03T07:48:03.158Z,62.80
2018-10-03T07:50:31.194Z,59.90
2018-10-03T07:52:59.339Z,58.40
2018-10-03T07:55:27.986Z,57.80
2018-10-03T07:57:56.275Z,53.50
2018-10-03T08:00:26.398Z,50.20
2018-10-03T08:02:54.463Z,47.50
2018-10-03T08:05:22.526Z,45.20
2018-10-03T08:07:50.698Z,44.80
2018-10-03T08:10:19.110Z,46.10
2018-10-03T08:12:48.031Z,47.60
2018-10-03T08:15:16.656Z,47.10
2018-10-03T08:17:44.934Z,48.10
2018-10-03T08:20:13.034Z,47.10
2018-10-03T08:22:41.478Z,44.90
2018-10-03T08:25:09.716Z,41.80
2018-10-03T08:27:37.742Z,40.50
2018-10-03T08:30:05.810Z,42.70
2018-10-03T08:32:33.884Z,46.10
2018-10-03T08:35:01.908Z,48.60
2018-10-03T08:37:30.112Z,47.10
2018-10-03T08:39:58.631Z,44.50
2018-10-03T08:42:26.650Z,43.70
2018-10-03T08:44:54.646Z,42.00
2018-10-03T08:47:22.810Z,39.50
2018-10-03T08:49:50.895Z,40.80
2018-10-03T08:52:18.972Z,43.70
2018-10-03T08:54:47.264Z,45.50
2018-10-03T08:57:15.718Z,45.70
2018-10-03T08:59:43.781Z,47.00
2018-10-03T09:02:11.915Z,47.90
2018-10-03T09:04:40.129Z,48.00
2018-10-03T09:07:08.207Z,49.00
2018-10-03T09:09:36.262Z,49.80
2018-10-03T09:12:04.277Z,50.80
2018-10-03T09:14:32.322Z,52.00
2018-10-03T09:17:00.459Z,52.50
2018-10-03T09:19:28.559Z,52.10
2018-10-03T09:21:57.312Z,52.70
2018-10-03T09:24:25.506Z,52.40
2018-10-03T09:26:53.578Z,52.50
2018-10-03T09:29:21.580Z,53.00
2018-10-03T09:31:51.058Z,53.00
2018-10-03T09:34:19.431Z,51.20
2018-10-03T09:36:48.418Z,50.70
2018-10-03T09:39:16.490Z,51.40
2018-10-03T09:41:44.565Z,53.00
2018-10-03T09:44:12.602Z,53.20
2018-10-03T09:46:41.730Z,51.10
2018-10-03T09:49:09.844Z,47.80
2018-10-03T09:51:38.104Z,48.20
2018-10-03T09:54:06.286Z,49.30
2018-10-03T09:56:34.536Z,47.10
2018-10-03T09:59:03.014Z,46.40
2018-10-03T10:01:32.510Z,47.40
2018-10-03T10:04:02.251Z,49.60
2018-10-03T10:06:31.987Z,50.10
2018-10-03T10:09:00.256Z,49.40
2018-10-03T10:11:28.434Z,47.70
2018-10-03T10:13:56.466Z,49.40
2018-10-03T10:16:24.506Z,52.70
2018-10-03T10:18:52.833Z,53.00
2018-10-03T10:21:21.509Z,53.70
2018-10-03T10:23:49.617Z,52.30
2018-10-03T10:26:17.762Z,52.30
2018-10-03T10:28:45.797Z,51.50
2018-10-03T10:31:13.870Z,52.30
2018-10-03T10:33:42.046Z,52.30
2018-10-03T10:36:10.149Z,52.30
2018-10-03T10:38:38.213Z,53.30
2018-10-03T10:41:06.296Z,54.10
2018-10-03T10:43:34.411Z,53.70
2018-10-03T10:46:02.370Z,53.20
2018-10-03T10:48:30.366Z,52.20
2018-10-03T10:50:58.524Z,52.40
2018-10-03T10:53:26.567Z,54.60
2018-10-03T10:55:54.681Z,56.50
2018-10-03T10:58:23.162Z,59.90
2018-10-03T11:00:52.254Z,61.90
2018-10-03T11:03:20.384Z,62.40
2018-10-03T11:05:48.502Z,64.80
2018-10-03T11:08:16.638Z,65.40
2018-10-03T11:10:44.756Z,64.90
2018-10-03T11:13:12.782Z,64.00
2018-10-03T11:15:40.835Z,62.80
2018-10-03T11:18:08.903Z,61.50
2018-10-03T11:20:37.649Z,59.40
2018-10-03T11:23:05.863Z,57.90
2018-10-03T11:25:33.857Z,59.20
2018-10-03T11:28:01.887Z,62.60
2018-10-03T11:30:29.937Z,66.60
2018-10-03T11:32:58.242Z,71.20
2018-10-03T11:35:27.362Z,69.30
2018-10-03T11:37:55.542Z,71.20
2018-10-03T11:40:24.175Z,72.10
2018-10-03T11:42:52.239Z,71.80
2018-10-03T11:45:20.291Z,72.90
2018-10-03T11:47:48.405Z,74.30
2018-10-03T11:50:16.858Z,74.50
2018-10-03T11:52:44.861Z,72.30
2018-10-03T11:55:13.003Z,72.90
2018-10-03T11:57:41.069Z,71.80
2018-10-03T12:00:09.080Z,72.50
2018-10-03T12:02:37.412Z,72.00
2018-10-03T12:05:05.518Z,69.80
2018-10-03T12:07:33.566Z,70.50
2018-10-03T12:10:01.602Z,69.90
2018-10-03T12:12:29.919Z,66.50
2018-10-03T12:14:57.972Z,66.80
2018-10-03T12:17:26.062Z,66.50
2018-10-03T12:19:54.131Z,67.50
2018-10-03T12:22:22.142Z,66.70
2018-10-03T12:24:50.166Z,64.10
2018-10-03T12:27:18.347Z,64.00
2018-10-03T12:29:46.420Z,63.40
2018-10-03T12:32:14.483Z,63.70
2018-10-03T12:34:42.526Z,64.30
2018-10-03T12:37:10.566Z,64.40
2018-10-03T12:39:38.570Z,62.60
2018-10-03T12:42:06.819Z,61.80
2018-10-03T12:44:34.910Z,61.30
2018-10-03T12:47:02.961Z,59.60
2018-10-03T12:49:31.124Z,60.20
2018-10-03T12:51:59.270Z,59.00
2018-10-03T12:54:27.510Z,60.00
2018-10-03T12:56:55.641Z,58.90
2018-10-03T12:59:23.682Z,59.20
2018-10-03T13:01:51.749Z,58.60
2018-10-03T13:04:20.020Z,57.80
2018-10-03T13:06:48.078Z,56.20
2018-10-03T13:09:16.993Z,55.50
2018-10-03T13:11:45.310Z,54.40
2018-10-03T13:14:13.929Z,51.80
2018-10-03T13:16:41.927Z,51.00
2018-10-03T13:19:10.107Z,51.30
2018-10-03T13:21:38.678Z,50.40
2018-10-03T13:24:07.201Z,50.10
2018-10-03T13:26:35.580Z,49.80
2018-10-03T13:29:03.806Z,48.60
2018-10-03T13:31:31.974Z,47.80
2018-10-03T13:34:00.365Z,48.60
2018-10-03T13:36:28.444Z,48.70
2018-10-03T13:38:56.599Z,48.80
2018-10-03T13:41:24.786Z,46.90
2018-10-03T13:43:52.722Z,48.00
2018-10-03T13:46:20.919Z,44.80
2018-10-03T13:48:48.957Z,45.70
2018-10-03T13:51:16.983Z,45.10
2018-10-03T13:53:45.000Z,45.30
2018-10-03T13:56:15.104Z,45.70
2018-10-03T13:58:43.219Z,46.00
2018-10-03T14:01:11.447Z,45.40
2018-10-03T14:03:39.547Z,45.00
2018-10-03T14:06:07.863Z,44.60
2018-10-03T14:08:36.060Z,44.90
2018-10-03T14:11:04.178Z,45.10
2018-10-03T14:13:32.185Z,45.70
2018-10-03T14:16:00.398Z,46.00
2018-10-03T14:18:28.543Z,46.10
2018-10-03T14:20:56.677Z,46.10
2018-10-03T14:23:24.730Z,46.50
2018-10-03T14:25:52.810Z,47.40
2018-10-03T14:28:20.902Z,47.50
2018-10-03T14:30:48.947Z,48.20
2018-10-03T14:33:17.105Z,47.60
2018-10-03T14:35:45.129Z,47.90
2018-10-03T14:38:13.490Z,48.40
2018-10-03T14:40:41.658Z,48.40
2018-10-03T14:43:09.787Z,48.40
2018-10-03T14:45:37.811Z,47.60
2018-10-03T14:48:05.734Z,47.90
2018-10-03T14:50:33.764Z,48.00
2018-10-03T14:53:02.091Z,48.20
2018-10-03T14:55:30.306Z,48.40
2018-10-03T14:57:58.323Z,48.10
2018-10-03T15:00:26.420Z,48.40
2018-10-03T15:02:54.548Z,48.20
2018-10-03T15:05:22.604Z,49.40
2018-10-03T15:07:51.063Z,49.70
2018-10-03T15:10:19.131Z,50.30
2018-10-03T15:12:47.214Z,50.30
2018-10-03T15:15:15.613Z,50.10
2018-10-03T15:17:43.718Z,50.10
2018-10-03T15:20:11.773Z,50.50
2018-10-03T15:22:39.907Z,50.30
2018-10-03T15:25:08.180Z,50.90
2018-10-03T15:27:36.370Z,51.30
2018-10-03T15:30:04.685Z,51.50
2018-10-03T15:32:32.738Z,51.30
2018-10-03T15:35:00.788Z,51.90
2018-10-03T15:37:28.860Z,51.90
2018-10-03T15:39:56.844Z,52.20
2018-10-03T15:42:24.842Z,52.20
2018-10-03T15:44:53.156Z,52.80
2018-10-03T15:47:21.207Z,52.60
2018-10-03T15:49:49.190Z,53.10
2018-10-03T15:52:17.225Z,53.20
2018-10-03T15:54:45.240Z,52.90
2018-10-03T15:57:13.266Z,53.40
2018-10-03T15:59:41.685Z,52.80
2018-10-03T16:02:09.683Z,53.40
2018-10-03T16:04:37.736Z,53.30
2018-10-03T16:07:05.809Z,53.30
2018-10-03T16:09:34.415Z,53.80
2018-10-03T16:12:02.350Z,54.00
2018-10-03T16:14:30.410Z,54.20
2018-10-03T16:16:58.436Z,54.50
2018-10-03T16:19:26.431Z,54.80
2018-10-03T16:21:54.482Z,54.90
2018-10-03T16:24:22.544Z,55.00
2018-10-03T16:26:50.666Z,55.50
2018-10-03T16:29:19.606Z,55.70
2018-10-03T16:31:47.625Z,56.10
2018-10-03T16:34:15.645Z,56.30
2018-10-03T16:36:43.881Z,56.40
2018-10-03T16:39:12.256Z,57.20
2018-10-03T16:41:40.246Z,57.20
2018-10-03T16:44:08.703Z,57.30
2018-10-03T16:46:36.732Z,57.50
2018-10-03T16:49:04.726Z,58.30
2018-10-03T16:51:32.922Z,58.20
2018-10-03T16:54:00.983Z,58.30
2018-10-03T16:56:29.064Z,58.10
2018-10-03T16:58:58.119Z,58.40
2018-10-03T17:01:26.199Z,58.80
2018-10-03T17:03:54.266Z,59.10
2018-10-03T17:06:22.286Z,59.00
2018-10-03T17:08:50.550Z,59.20
2018-10-03T17:11:19.324Z,59.60
2018-10-03T17:13:58.723Z,60.00
2018-10-03T17:16:26.740Z,60.10
2018-10-03T17:18:54.741Z,61.20
2018-10-03T17:21:22.858Z,62.20
2018-10-03T17:23:50.815Z,62.80
2018-10-03T17:26:18.828Z,63.90
2018-10-03T17:28:46.974Z,64.30
2018-10-03T17:31:15.050Z,65.10
2018-10-03T17:33:53.988Z,65.60
2018-10-03T17:36:22.043Z,66.90
2018-10-03T17:38:50.239Z,67.10
2018-10-03T17:41:18.615Z,67.50
2018-10-03T17:43:46.636Z,67.90
2018-10-03T17:46:14.618Z,68.20
2018-10-03T17:48:42.998Z,68.20
2018-10-03T17:51:11.104Z,68.60
2018-10-03T17:53:39.215Z,68.50
2018-10-03T17:56:07.656Z,68.30
2018-10-03T17:58:38.363Z,68.50
2018-10-03T18:01:06.416Z,68.00
2018-10-03T18:03:34.521Z,68.10
2018-10-03T18:06:02.545Z,67.50
2018-10-03T18:08:30.609Z,67.90
2018-10-03T18:10:58.683Z,67.00
2018-10-03T18:13:26.966Z,66.50
2018-10-03T18:15:55.012Z,66.40
2018-10-03T18:18:23.070Z,66.40
2018-10-03T18:20:51.215Z,66.40
2018-10-03T18:23:19.344Z,66.30
2018-10-03T18:25:47.639Z,66.30
2018-10-03T18:28:15.603Z,66.50
2018-10-03T18:30:44.046Z,67.00
2018-10-03T18:33:12.118Z,66.70
2018-10-03T18:35:40.116Z,67.10
2018-10-03T18:38:08.152Z,67.50
2018-10-03T18:40:36.185Z,67.60
2018-10-03T18:43:04.180Z,68.00
2018-10-03T18:45:32.298Z,68.10
2018-10-03T18:48:00.376Z,68.70
2018-10-03T18:50:28.370Z,69.00
2018-10-03T18:52:56.676Z,69.60
2018-10-03T18:55:24.786Z,69.80
2018-10-03T18:57:52.788Z,70.10
2018-10-03T19:00:20.909Z,70.30
2018-10-03T19:02:48.914Z,70.60
2018-10-03T19:05:16.902Z,70.30
2018-10-03T19:07:45.054Z,70.90
2018-10-03T19:10:13.078Z,71.20
2018-10-03T19:12:41.482Z,71.50
2018-10-03T19:15:09.918Z,71.50
2018-10-03T19:17:37.958Z,71.50
2018-10-03T19:20:06.239Z,71.50
2018-10-03T19:22:34.759Z,71.80
2018-10-03T19:25:02.784Z,72.00
2018-10-03T19:27:30.790Z,72.30
2018-10-03T19:29:58.987Z,72.60
2018-10-03T19:32:27.284Z,72.80
2018-10-03T19:34:55.347Z,72.50
2018-10-03T19:37:23.598Z,72.40
2018-10-03T19:39:51.773Z,72.80
2018-10-03T19:42:19.865Z,72.50
2018-10-03T19:44:48.050Z,73.00
2018-10-03T19:47:16.111Z,72.90
2018-10-03T19:49:44.234Z,73.20
2018-10-03T19:52:12.367Z,73.40
2018-10-03T19:54:40.363Z,74.00
2018-10-03T19:57:08.790Z,73.30
2018-10-03T19:59:36.829Z,73.40
2018-10-03T20:02:04.843Z,74.00
2018-10-03T20:04:32.867Z,73.30
2018-10-03T20:07:01.030Z,73.30
2018-10-03T20:09:29.139Z,73.30
2018-10-03T20:11:57.201Z,73.30
2018-10-03T20:14:25.270Z,73.20
2018-10-03T20:16:53.434Z,73.40
2018-10-03T20:19:21.622Z,73.80
2018-10-03T20:21:49.853Z,73.90
2018-10-03T20:24:17.920Z,74.30
2018-10-03T20:26:45.985Z,73.70
2018-10-03T20:29:14.144Z,73.90
2018-10-03T20:31:42.155Z,74.40
2018-10-03T20:34:10.275Z,74.00
2018-10-03T20:36:38.373Z,74.00
2018-10-03T20:39:07.351Z,74.20
2018-10-03T20:41:35.496Z,73.90
2018-10-03T20:44:03.775Z,74.20
2018-10-03T20:46:32.483Z,74.10
2018-10-03T20:49:00.498Z,74.00
2018-10-03T20:51:28.811Z,74.00
2018-10-03T20:53:56.890Z,74.00
2018-10-03T20:56:24.926Z,73.80
2018-10-03T20:58:53.206Z,74.00
2018-10-03T21:01:21.241Z,74.20
2018-10-03T21:03:49.346Z,74.10
2018-10-03T21:06:17.503Z,74.10
2018-10-03T21:08:45.630Z,74.50
2018-10-03T21:11:13.710Z,75.30
2018-10-03T21:13:41.791Z,74.80
2018-10-03T21:16:09.820Z,74.60
2018-10-03T21:18:38.236Z,74.70
2018-10-03T21:21:06.842Z,74.70
2018-10-03T21:23:34.880Z,75.00
2018-10-03T21:26:02.898Z,75.00
2018-10-03T21:28:31.090Z,75.00
2018-10-03T21:30:59.094Z,75.40
2018-10-03T21:33:27.286Z,75.50
2018-10-03T21:35:55.766Z,75.70
2018-10-03T21:38:23.813Z,75.80
2018-10-03T21:40:51.819Z,76.20
2018-10-03T21:43:19.875Z,76.20
2018-10-03T21:45:47.899Z,76.60
2018-10-03T21:48:15.937Z,76.90
2018-10-03T21:50:44.138Z,76.70
2018-10-03T21:53:13.046Z,77.00
2018-10-03T21:55:41.078Z,77.00
2018-10-03T21:58:09.116Z,77.10
2018-10-03T22:00:42.567Z,77.20
2018-10-03T22:03:10.623Z,77.00
2018-10-03T22:05:38.657Z,77.10
2018-10-03T22:08:06.645Z,77.20
2018-10-03T22:10:34.678Z,77.00
2018-10-03T22:13:02.708Z,77.30
2018-10-03T22:15:30.705Z,77.30
2018-10-03T22:17:58.879Z,77.40
2018-10-03T22:20:27.221Z,77.60
2018-10-03T22:22:55.346Z,77.70
2018-10-03T22:25:23.490Z,77.70
2018-10-03T22:27:51.595Z,78.50
2018-10-03T22:30:19.662Z,78.00
2018-10-03T22:32:47.734Z,78.00
2018-10-03T22:35:15.731Z,78.00
2018-10-03T22:37:43.710Z,78.30
2018-10-03T22:40:11.917Z,78.40
2018-10-03T22:42:39.924Z,78.60
2018-10-03T22:45:07.951Z,78.40
2018-10-03T22:47:36.027Z,78.50
2018-10-03T22:50:04.070Z,78.80
2018-10-03T22:52:32.055Z,78.90
2018-10-03T22:55:00.464Z,79.00
2018-10-03T22:57:28.467Z,79.10
2018-10-03T22:59:56.483Z,79.40
2018-10-03T23:02:24.571Z,79.40
2018-10-03T23:04:52.555Z,79.40
2018-10-03T23:07:20.566Z,79.60
2018-10-03T23:09:48.767Z,79.60
2018-10-03T23:12:16.772Z,80.10
2018-10-03T23:14:44.765Z,80.30
2018-10-03T23:17:12.811Z,80.40
2018-10-03T23:19:40.820Z,80.40
2018-10-03T23:22:09.100Z,80.60
2018-10-03T23:24:37.402Z,80.70
2018-10-03T23:27:05.574Z,81.00
2018-10-03T23:29:33.575Z,81.00
2018-10-03T23:32:01.805Z,81.50
2018-10-03T23:34:30.019Z,81.40
2018-10-03T23:36:58.061Z,81.70
2018-10-03T23:39:26.235Z,81.80
2018-10-03T23:41:54.398Z,82.70
2018-10-03T23:44:22.525Z,82.00
2018-10-03T23:46:50.592Z,82.20
2018-10-03T23:49:18.819Z,82.50
2018-10-03T23:51:46.819Z,82.30
2018-10-03T23:54:15.066Z,82.60
2018-10-03T23:56:43.144Z,82.50
2018-10-03T23:59:11.215Z,82.20
